createdAt,value
2018-12-02T00:01:55.564Z,49.60
2018-12-02T00:05:59.059Z,53.80
2018-12-02T00:10:04.326Z,51.40
2018-12-02T00:14:07.795Z,51.70
2018-12-02T00:18:12.806Z,53.53
2018-12-02T00:22:16.331Z,56.90
2018-12-02T00:26:19.837Z,53.37
2018-12-02T00:30:25.244Z,51.30
2018-12-02T00:34:28.691Z,49.03
2018-12-02T00:38:32.164Z,49.03
2018-12-02T00:42:35.660Z,55.47
2018-12-02T00:46:39.083Z,49.47
2018-12-02T00:50:42.568Z,49.80
2018-12-02T00:54:46.029Z,46.80
2018-12-02T00:58:49.530Z,55.67
2018-12-02T01:02:53.076Z,45.57
2018-12-02T01:06:56.601Z,51.93
2018-12-02T01:11:00.100Z,48.30
2018-12-02T01:15:04.331Z,53.80
2018-12-02T01:19:07.782Z,53.73
2018-12-02T01:23:11.249Z,51.27
2018-12-02T01:27:14.731Z,51.20
2018-12-02T01:31:18.194Z,46.13
2018-12-02T01:35:21.643Z,47.73
2018-12-02T01:39:25.159Z,51.87
2018-12-02T01:43:28.683Z,49.57
2018-12-02T01:47:32.135Z,46.70
2018-12-02T01:51:35.673Z,47.40
2018-12-02T01:55:39.181Z,57.90
2018-12-02T01:59:42.747Z,52.83
2018-12-02T02:03:46.263Z,48.23
2018-12-02T02:07:49.767Z,48.07
2018-12-02T02:11:53.272Z,47.80
2018-12-02T02:15:57.167Z,55.60
2018-12-02T02:20:00.681Z,50.90
2018-12-02T02:24:05.003Z,48.50
2018-12-02T02:28:08.487Z,47.97
2018-12-02T02:32:11.981Z,46.70
2018-12-02T02:36:15.527Z,46.23
2018-12-02T02:40:21.156Z,42.90
2018-12-02T02:44:24.599Z,48.80
2018-12-02T02:48:28.128Z,47.43
2018-12-02T02:52:31.664Z,46.60
2018-12-02T02:56:35.221Z,51.23
2018-12-02T03:00:38.721Z,50.93
2018-12-02T03:04:42.191Z,53.23
2018-12-02T03:08:45.737Z,50.57
2018-12-02T03:12:51.292Z,49.50
2018-12-02T03:16:54.803Z,44.33
2018-12-02T03:20:58.270Z,42.07
2018-12-02T03:25:01.753Z,46.67
2018-12-02T03:29:05.523Z,48.80
2018-12-02T03:33:08.971Z,43.90
2018-12-02T03:37:12.431Z,45.57
2018-12-02T03:41:15.908Z,41.07
2018-12-02T03:45:20.341Z,54.80
2018-12-02T03:49:23.884Z,45.93
2018-12-02T03:53:27.324Z,36.57
2018-12-02T03:57:30.835Z,42.03
2018-12-02T04:01:34.356Z,48.20
2018-12-02T04:05:37.820Z,47.87
2018-12-02T04:09:41.406Z,47.27
2018-12-02T04:13:44.912Z,45.23
2018-12-02T04:17:48.377Z,46.77
2018-12-02T04:21:52.154Z,44.63
2018-12-02T04:25:55.567Z,45.43
2018-12-02T04:29:59.065Z,48.57
2018-12-02T04:34:02.601Z,46.70
2018-12-02T04:38:06.159Z,47.63
2018-12-02T04:42:09.661Z,45.67
2018-12-02T04:46:13.211Z,44.30
2018-12-02T04:50:21.493Z,45.47
2018-12-02T04:54:24.986Z,46.43
2018-12-02T04:58:28.500Z,47.67
2018-12-02T05:02:31.961Z,43.63
2018-12-02T05:06:35.490Z,52.50
2018-12-02T05:10:39.062Z,44.67
2018-12-02T05:14:42.553Z,47.13
2018-12-02T05:18:46.061Z,48.33
2018-12-02T05:22:49.616Z,53.77
2018-12-02T05:26:53.110Z,49.67
2018-12-02T05:30:56.668Z,52.70
2018-12-02T05:35:00.143Z,58.60
2018-12-02T05:39:04.642Z,47.63
2018-12-02T05:43:08.116Z,48.57
2018-12-02T05:47:11.567Z,45.43
2018-12-02T05:51:15.440Z,52.80
2018-12-02T05:55:22.534Z,50.17
2018-12-02T05:59:26.056Z,47.13
2018-12-02T06:03:29.518Z,50.63
2018-12-02T06:07:33.306Z,49.87
2018-12-02T06:11:37.017Z,51.20
2018-12-02T06:15:40.867Z,42.23
2018-12-02T06:19:44.320Z,52.47
2018-12-02T06:23:47.818Z,46.30
2018-12-02T06:27:51.390Z,44.93
2018-12-02T06:31:54.945Z,53.13
2018-12-02T06:35:58.459Z,50.73
2018-12-02T06:40:01.922Z,47.93
2018-12-02T06:44:05.652Z,45.90
2018-12-02T06:48:09.144Z,44.80
2018-12-02T06:52:12.607Z,48.40
2018-12-02T06:56:21.975Z,47.67
2018-12-02T07:00:43.064Z,46.90
2018-12-02T07:04:46.572Z,49.27
2018-12-02T07:08:50.011Z,45.23
2018-12-02T07:12:53.581Z,44.93
2018-12-02T07:16:57.029Z,44.43
2018-12-02T07:21:05.250Z,41.87
2018-12-02T07:25:14.829Z,41.83
2018-12-02T07:29:18.279Z,37.53
2018-12-02T07:33:21.780Z,40.83
2018-12-02T07:37:25.222Z,48.90
2018-12-02T07:41:28.722Z,39.70
2018-12-02T07:45:32.265Z,35.97
2018-12-02T07:49:35.825Z,43.73
2018-12-02T07:53:39.436Z,44.77
2018-12-02T07:57:42.968Z,42.03
2018-12-02T08:01:46.450Z,43.53
2018-12-02T08:05:49.986Z,42.90
2018-12-02T08:09:53.487Z,37.17
2018-12-02T08:13:57.022Z,37.87
2018-12-02T08:18:00.487Z,43.77
2018-12-02T08:22:04.396Z,43.10
2018-12-02T08:26:07.955Z,39.87
2018-12-02T08:30:13.907Z,48.27
2018-12-02T08:34:17.435Z,43.13
2018-12-02T08:38:20.963Z,44.37
2018-12-02T08:42:24.512Z,44.63
2018-12-02T08:46:28.063Z,42.20
2018-12-02T08:50:31.592Z,43.17
2018-12-02T08:54:35.052Z,46.70
2018-12-02T08:58:38.539Z,43.53
2018-12-02T09:02:42.460Z,43.80
2018-12-02T09:06:46.002Z,46.17
2018-12-02T09:10:49.490Z,46.27
2018-12-02T09:14:53.000Z,47.80
2018-12-02T09:18:56.459Z,50.97
2018-12-02T09:22:59.972Z,47.70
2018-12-02T09:27:04.033Z,49.60
2018-12-02T09:31:07.537Z,50.10
2018-12-02T09:35:11.311Z,46.70
2018-12-02T09:39:18.368Z,53.40
2018-12-02T09:43:18.474Z,55.73
2018-12-02T09:47:22.012Z,53.17
2018-12-02T09:51:25.501Z,54.47
2018-12-02T09:55:32.691Z,55.80
2018-12-02T09:59:36.209Z,53.53
2018-12-02T10:03:39.671Z,57.97
2018-12-02T10:07:43.599Z,51.20
2018-12-02T10:11:47.114Z,53.33
2018-12-02T10:15:50.798Z,53.17
2018-12-02T10:19:54.240Z,51.87
2018-12-02T10:23:57.687Z,52.50
2018-12-02T10:28:01.363Z,57.77
2018-12-02T10:32:04.818Z,56.97
2018-12-02T10:36:08.361Z,63.97
2018-12-02T10:40:13.832Z,61.77
2018-12-02T10:44:17.331Z,57.70
2018-12-02T10:48:20.776Z,59.17
2018-12-02T10:52:24.741Z,58.93
2018-12-02T10:56:28.257Z,59.13
2018-12-02T11:00:36.888Z,54.63
2018-12-02T11:04:40.483Z,60.03
2018-12-02T11:08:44.011Z,59.17
2018-12-02T11:12:47.473Z,58.60
2018-12-02T11:16:50.962Z,59.93
2018-12-02T11:20:54.440Z,61.37
2018-12-02T11:24:58.119Z,56.27
2018-12-02T11:29:02.880Z,56.37
2018-12-02T11:33:06.675Z,57.80
2018-12-02T11:37:10.246Z,60.00
2018-12-02T11:41:13.751Z,59.93
2018-12-02T11:45:17.284Z,63.30
2018-12-02T11:49:20.755Z,63.00
2018-12-02T11:53:24.286Z,61.50
2018-12-02T11:57:27.812Z,58.83
2018-12-02T12:01:31.309Z,63.53
2018-12-02T12:05:35.089Z,59.87
2018-12-02T12:09:38.799Z,62.77
2018-12-02T12:13:42.988Z,61.27
2018-12-02T12:17:48.992Z,60.80
2018-12-02T12:21:52.725Z,61.97
2018-12-02T12:25:56.275Z,69.30
2018-12-02T12:29:59.736Z,62.33
2018-12-02T12:34:03.208Z,69.43
2018-12-02T12:38:07.331Z,66.73
2018-12-02T12:42:10.800Z,65.80
2018-12-02T12:46:14.278Z,62.00
2018-12-02T12:50:17.816Z,67.33
2018-12-02T12:54:21.286Z,61.17
2018-12-02T12:58:24.793Z,66.43
2018-12-02T13:02:28.308Z,54.00
2018-12-02T13:06:31.802Z,64.77
2018-12-02T13:10:35.213Z,65.07
2018-12-02T13:14:39.040Z,60.90
2018-12-02T13:18:42.535Z,59.00
2018-12-02T13:22:46.995Z,57.43
2018-12-02T13:26:50.517Z,58.27
2018-12-02T13:30:53.951Z,61.40
2018-12-02T13:34:57.454Z,60.87
2018-12-02T13:39:01.374Z,57.27
2018-12-02T13:43:15.856Z,58.07
2018-12-02T13:47:19.345Z,57.40
2018-12-02T13:51:22.883Z,61.20
2018-12-02T13:55:28.907Z,57.87
2018-12-02T13:59:32.368Z,53.70
2018-12-02T14:03:35.949Z,58.73
2018-12-02T14:07:39.489Z,60.13
2018-12-02T14:11:42.972Z,56.87
2018-12-02T14:15:52.036Z,53.07
2018-12-02T14:19:55.575Z,59.47
2018-12-02T14:23:59.027Z,56.47
2018-12-02T14:28:02.512Z,51.83
2018-12-02T14:36:09.695Z,56.43
2018-12-02T14:40:14.498Z,55.57
2018-12-02T14:44:18.052Z,52.00
2018-12-02T14:48:21.560Z,50.57
2018-12-02T14:52:25.103Z,49.30
2018-12-02T14:56:28.733Z,54.47
2018-12-02T15:00:32.235Z,51.87
2018-12-02T15:04:36.006Z,44.00
2018-12-02T15:08:39.775Z,49.30
2018-12-02T15:12:43.791Z,51.57
2018-12-02T15:16:47.232Z,50.80
2018-12-02T15:20:51.116Z,52.03
2018-12-02T15:24:54.567Z,49.40
2018-12-02T15:28:58.068Z,53.50
2018-12-02T15:33:01.567Z,52.67
2018-12-02T15:37:05.412Z,51.77
2018-12-02T15:41:08.946Z,50.87
2018-12-02T15:45:13.466Z,53.43
2018-12-02T15:49:16.981Z,55.70
2018-12-02T15:53:20.477Z,53.07
2018-12-02T15:57:23.968Z,59.47
2018-12-02T16:01:27.443Z,50.03
2018-12-02T16:05:30.951Z,51.73
2018-12-02T16:09:34.406Z,51.73
2018-12-02T16:13:37.937Z,60.40
2018-12-02T16:17:41.498Z,51.23
2018-12-02T16:21:45.053Z,57.03
2018-12-02T16:25:48.507Z,54.83
2018-12-02T16:29:51.926Z,49.00
2018-12-02T16:33:55.438Z,54.77
2018-12-02T16:37:58.882Z,50.07
2018-12-02T16:42:03.448Z,50.53
2018-12-02T16:46:07.012Z,52.27
2018-12-02T16:50:18.959Z,50.07
2018-12-02T16:54:22.540Z,52.33
2018-12-02T16:59:30.384Z,57.80
2018-12-02T17:03:33.908Z,50.47
2018-12-02T17:07:37.415Z,57.07
2018-12-02T17:11:41.780Z,53.70
2018-12-02T17:15:45.244Z,56.30
2018-12-02T17:19:48.709Z,55.57
2018-12-02T17:23:53.930Z,49.30
2018-12-02T17:27:57.456Z,57.23
2018-12-02T17:32:08.779Z,53.90
2018-12-02T17:36:12.215Z,57.93
2018-12-02T17:40:19.900Z,51.23
2018-12-02T17:44:23.373Z,55.13
2018-12-02T17:48:27.902Z,50.77
2018-12-02T17:52:31.332Z,50.33
2018-12-02T17:56:34.791Z,46.57
2018-12-02T18:00:38.347Z,49.80
2018-12-02T18:04:41.856Z,54.77
2018-12-02T18:08:45.568Z,48.67
2018-12-02T18:12:49.119Z,53.97
2018-12-02T18:16:52.800Z,48.53
2018-12-02T18:20:56.835Z,45.53
2018-12-02T18:25:03.485Z,49.00
2018-12-02T18:29:07.154Z,49.93
2018-12-02T18:33:10.853Z,44.10
2018-12-02T18:37:15.169Z,45.03
2018-12-02T18:41:21.772Z,47.63
2018-12-02T18:45:25.866Z,50.40
2018-12-02T18:49:30.195Z,47.87
2018-12-02T18:53:34.691Z,49.57
2018-12-02T18:57:38.396Z,52.93
2018-12-02T19:01:42.027Z,55.20
2018-12-02T19:05:46.057Z,45.27
2018-12-02T19:09:49.622Z,44.33
2018-12-02T19:13:53.334Z,46.07
2018-12-02T19:17:57.017Z,47.57
2018-12-02T19:22:01.001Z,47.40
2018-12-02T19:26:05.128Z,44.20
2018-12-02T19:38:48.054Z,49.57
2018-12-02T19:42:51.734Z,43.63
2018-12-02T19:46:55.490Z,45.73
2018-12-02T19:50:59.898Z,48.33
2018-12-02T19:55:03.910Z,48.83
2018-12-02T19:59:07.624Z,52.23
2018-12-02T20:03:13.241Z,51.27
2018-12-02T20:07:17.239Z,49.17
2018-12-02T20:11:21.088Z,52.57
2018-12-02T20:15:25.363Z,50.70
2018-12-02T20:19:34.805Z,49.27
2018-12-02T20:23:43.624Z,45.33
2018-12-02T20:27:47.534Z,50.97
2018-12-02T20:31:51.181Z,50.17
2018-12-02T20:35:55.973Z,43.57
2018-12-02T20:39:59.722Z,55.13
2018-12-02T20:44:03.388Z,50.47
2018-12-02T20:48:07.211Z,48.80
2018-12-02T20:52:11.724Z,48.73
2018-12-02T20:56:15.234Z,51.57
2018-12-02T21:00:19.737Z,49.53
2018-12-02T21:04:23.469Z,52.37
2018-12-02T21:08:27.170Z,45.77
2018-12-02T21:12:31.148Z,45.80
2018-12-02T21:16:34.717Z,51.23
2018-12-02T21:20:38.630Z,52.13
2018-12-02T21:24:42.159Z,47.83
2018-12-02T21:28:45.699Z,50.10
2018-12-02T21:32:49.227Z,55.83
2018-12-02T21:36:52.759Z,49.03
2018-12-02T21:40:56.320Z,45.83
2018-12-02T21:44:59.905Z,52.63
2018-12-02T21:49:03.466Z,46.57
2018-12-02T21:53:07.015Z,50.53
2018-12-02T21:57:10.555Z,49.77
2018-12-02T22:01:14.135Z,49.70
2018-12-02T22:05:17.698Z,53.27
2018-12-02T22:09:21.197Z,51.53
2018-12-02T22:13:24.757Z,53.83
2018-12-02T22:17:28.407Z,54.23
2018-12-02T22:21:31.865Z,54.47
2018-12-02T22:25:35.526Z,58.43
2018-12-02T22:29:39.158Z,56.37
2018-12-02T22:33:42.825Z,52.73
2018-12-02T22:37:47.337Z,50.17
2018-12-02T22:41:52.715Z,50.53
2018-12-02T22:45:56.233Z,52.50
2018-12-02T22:49:59.876Z,51.33
2018-12-02T22:54:03.462Z,52.87
2018-12-02T22:58:07.944Z,56.80
2018-12-02T23:02:16.827Z,50.23
2018-12-02T23:06:20.427Z,50.63
2018-12-02T23:10:24.058Z,55.20
2018-12-02T23:14:27.657Z,55.10
2018-12-02T23:18:31.261Z,55.07
2018-12-02T23:22:34.967Z,56.60
2018-12-02T23:26:39.697Z,58.00
2018-12-02T23:30:45.642Z,57.67
2018-12-02T23:34:53.315Z,56.97
2018-12-02T23:38:56.907Z,60.87
2018-12-02T23:43:00.713Z,60.33
2018-12-02T23:47:04.281Z,61.63
2018-12-02T23:51:08.512Z,61.73
2018-12-02T23:55:16.958Z,57.07
2018-12-02T23:59:21.059Z,55.50
